sensor_id;sensor_type;location;lat;lon;timestamp;P1;durP1;ratioP1;P2;durP2;ratioP2
26686;SDS011;14298;50.900;4.648;2023-08-01T00:00:34;30.27;;;28.27;;
26686;SDS011;14298;50.900;4.648;2023-08-01T00:03:02;29.80;;;27.80;;
26686;SDS011;14298;50.900;4.648;2023-08-01T00:05:30;30.67;;;28.67;;
26686;SDS011;14298;50.900;4.648;2023-08-01T00:07:58;31.23;;;29.23;;
26686;SDS011;14298;50.900;4.648;2023-08-01T00:10:26;31.50;;;29.40;;
26686;SDS011;14298;50.900;4.648;2023-08-01T00:12:54;30.40;;;28.50;;
26686;SDS011;14298;50.900;4.648;2023-08-01T00:15:22;29.80;;;27.90;;
26686;SDS011;14298;50.900;4.648;2023-08-01T00:17:50;30.40;;;28.50;;
26686;SDS011;14298;50.900;4.648;2023-08-01T00:20:18;29.70;;;27.80;;
26686;SDS011;14298;50.900;4.648;2023-08-01T00:22:46;29.33;;;27.53;;
26686;SDS011;14298;50.900;4.648;2023-08-01T00:25:15;29.53;;;27.63;;
26686;SDS011;14298;50.900;4.648;2023-08-01T00:27:43;29.03;;;27.23;;
26686;SDS011;14298;50.900;4.648;2023-08-01T00:30:11;29.57;;;27.67;;
26686;SDS011;14298;50.900;4.648;2023-08-01T00:32:39;29.50;;;27.67;;
26686;SDS011;14298;50.900;4.648;2023-08-01T00:35:07;29.47;;;27.67;;
26686;SDS011;14298;50.900;4.648;2023-08-01T00:37:35;29.77;;;27.87;;
26686;SDS011;14298;50.900;4.648;2023-08-01T00:40:03;31.27;;;28.87;;
26686;SDS011;14298;50.900;4.648;2023-08-01T00:42:35;32.67;;;27.90;;
26686;SDS011;14298;50.900;4.648;2023-08-01T00:45:03;29.60;;;27.70;;
26686;SDS011;14298;50.900;4.648;2023-08-01T00:47:31;28.90;;;26.90;;
26686;SDS011;14298;50.900;4.648;2023-08-01T00:49:59;28.40;;;26.70;;
26686;SDS011;14298;50.900;4.648;2023-08-01T00:52:27;28.13;;;26.43;;
26686;SDS011;14298;50.900;4.648;2023-08-01T00:54:55;29.10;;;27.30;;
26686;SDS011;14298;50.900;4.648;2023-08-01T00:57:23;28.40;;;26.60;;
26686;SDS011;14298;50.900;4.648;2023-08-01T00:59:51;27.57;;;25.87;;
26686;SDS011;14298;50.900;4.648;2023-08-01T01:02:19;29.17;;;27.40;;
26686;SDS011;14298;50.900;4.648;2023-08-01T01:04:47;29.40;;;27.60;;
26686;SDS011;14298;50.900;4.648;2023-08-01T01:07:15;27.70;;;26.10;;
26686;SDS011;14298;50.900;4.648;2023-08-01T01:09:44;28.23;;;26.47;;
26686;SDS011;14298;50.900;4.648;2023-08-01T01:12:12;28.27;;;26.57;;
26686;SDS011;14298;50.900;4.648;2023-08-01T01:14:40;28.13;;;26.43;;
26686;SDS011;14298;50.900;4.648;2023-08-01T01:17:08;31.13;;;29.00;;
26686;SDS011;14298;50.900;4.648;2023-08-01T01:19:36;28.20;;;26.50;;
26686;SDS011;14298;50.900;4.648;2023-08-01T01:22:04;29.40;;;27.53;;
26686;SDS011;14298;50.900;4.648;2023-08-01T01:24:33;28.43;;;26.63;;
26686;SDS011;14298;50.900;4.648;2023-08-01T01:27:03;29.43;;;27.40;;
26686;SDS011;14298;50.900;4.648;2023-08-01T01:29:32;28.43;;;26.67;;
26686;SDS011;14298;50.900;4.648;2023-08-01T01:32:01;28.17;;;26.50;;
26686;SDS011;14298;50.900;4.648;2023-08-01T01:34:30;28.00;;;26.30;;
26686;SDS011;14298;50.900;4.648;2023-08-01T01:36:58;27.47;;;25.80;;
26686;SDS011;14298;50.900;4.648;2023-08-01T01:39:26;27.60;;;25.90;;
26686;SDS011;14298;50.900;4.648;2023-08-01T01:41:54;25.23;;;23.53;;
26686;SDS011;14298;50.900;4.648;2023-08-01T01:44:22;24.27;;;22.87;;
26686;SDS011;14298;50.900;4.648;2023-08-01T01:46:50;22.90;;;21.60;;
26686;SDS011;14298;50.900;4.648;2023-08-01T01:49:18;23.20;;;21.90;;
26686;SDS011;14298;50.900;4.648;2023-08-01T01:51:46;23.07;;;21.87;;
26686;SDS011;14298;50.900;4.648;2023-08-01T01:54:14;24.07;;;22.67;;
26686;SDS011;14298;50.900;4.648;2023-08-01T01:56:42;24.23;;;22.63;;
26686;SDS011;14298;50.900;4.648;2023-08-01T01:59:10;23.57;;;22.27;;
26686;SDS011;14298;50.900;4.648;2023-08-01T02:01:38;23.57;;;22.27;;
26686;SDS011;14298;50.900;4.648;2023-08-01T02:04:06;24.13;;;22.70;;
26686;SDS011;14298;50.900;4.648;2023-08-01T02:06:34;24.10;;;22.70;;
26686;SDS011;14298;50.900;4.648;2023-08-01T02:09:02;24.13;;;22.80;;
26686;SDS011;14298;50.900;4.648;2023-08-01T02:11:31;24.73;;;23.33;;
26686;SDS011;14298;50.900;4.648;2023-08-01T02:13:59;24.03;;;22.73;;
26686;SDS011;14298;50.900;4.648;2023-08-01T02:16:28;24.30;;;22.90;;
26686;SDS011;14298;50.900;4.648;2023-08-01T02:18:56;24.60;;;23.03;;
26686;SDS011;14298;50.900;4.648;2023-08-01T02:21:24;23.40;;;22.07;;
26686;SDS011;14298;50.900;4.648;2023-08-01T02:23:52;23.23;;;21.93;;
26686;SDS011;14298;50.900;4.648;2023-08-01T02:26:20;24.73;;;23.23;;
26686;SDS011;14298;50.900;4.648;2023-08-01T02:28:50;24.10;;;22.67;;
26686;SDS011;14298;50.900;4.648;2023-08-01T02:31:18;24.33;;;23.03;;
26686;SDS011;14298;50.900;4.648;2023-08-01T02:33:47;26.07;;;23.80;;
26686;SDS011;14298;50.900;4.648;2023-08-01T02:36:15;23.83;;;22.53;;
26686;SDS011;14298;50.900;4.648;2023-08-01T02:38:43;23.53;;;22.23;;
26686;SDS011;14298;50.900;4.648;2023-08-01T02:41:11;23.37;;;22.07;;
26686;SDS011;14298;50.900;4.648;2023-08-01T02:43:39;24.53;;;23.13;;
26686;SDS011;14298;50.900;4.648;2023-08-01T02:46:08;24.30;;;22.90;;
26686;SDS011;14298;50.900;4.648;2023-08-01T02:48:37;26.40;;;24.73;;
26686;SDS011;14298;50.900;4.648;2023-08-01T02:51:05;26.27;;;23.87;;
26686;SDS011;14298;50.900;4.648;2023-08-01T02:53:35;24.70;;;23.30;;
26686;SDS011;14298;50.900;4.648;2023-08-01T02:56:03;26.33;;;24.73;;
26686;SDS011;14298;50.900;4.648;2023-08-01T02:58:32;25.87;;;24.13;;
26686;SDS011;14298;50.900;4.648;2023-08-01T03:01:00;27.53;;;25.63;;
26686;SDS011;14298;50.900;4.648;2023-08-01T03:03:28;25.33;;;23.73;;
26686;SDS011;14298;50.900;4.648;2023-08-01T03:05:57;26.30;;;24.70;;
26686;SDS011;14298;50.900;4.648;2023-08-01T03:08:25;25.50;;;24.10;;
26686;SDS011;14298;50.900;4.648;2023-08-01T03:10:53;27.33;;;25.73;;
26686;SDS011;14298;50.900;4.648;2023-08-01T03:13:21;24.83;;;23.17;;
26686;SDS011;14298;50.900;4.648;2023-08-01T03:15:49;21.97;;;20.63;;
26686;SDS011;14298;50.900;4.648;2023-08-01T03:18:17;24.17;;;22.20;;
26686;SDS011;14298;50.900;4.648;2023-08-01T03:20:45;24.33;;;22.83;;
26686;SDS011;14298;50.900;4.648;2023-08-01T03:23:13;24.33;;;22.90;;
26686;SDS011;14298;50.900;4.648;2023-08-01T03:25:41;23.50;;;22.30;;
26686;SDS011;14298;50.900;4.648;2023-08-01T03:28:09;23.43;;;21.97;;
26686;SDS011;14298;50.900;4.648;2023-08-01T03:30:37;24.53;;;22.80;;
26686;SDS011;14298;50.900;4.648;2023-08-01T03:33:05;23.43;;;22.07;;
26686;SDS011;14298;50.900;4.648;2023-08-01T03:35:33;23.53;;;22.23;;
26686;SDS011;14298;50.900;4.648;2023-08-01T03:38:01;23.50;;;22.00;;
26686;SDS011;14298;50.900;4.648;2023-08-01T03:40:30;23.90;;;21.97;;
26686;SDS011;14298;50.900;4.648;2023-08-01T03:42:58;24.00;;;22.57;;
26686;SDS011;14298;50.900;4.648;2023-08-01T03:45:26;24.80;;;23.40;;
26686;SDS011;14298;50.900;4.648;2023-08-01T03:47:54;23.70;;;22.40;;
26686;SDS011;14298;50.900;4.648;2023-08-01T03:50:22;22.80;;;20.67;;
26686;SDS011;14298;50.900;4.648;2023-08-01T03:52:50;22.83;;;21.40;;
26686;SDS011;14298;50.900;4.648;2023-08-01T03:55:18;24.17;;;22.77;;
26686;SDS011;14298;50.900;4.648;2023-08-01T03:57:46;22.90;;;21.60;;
26686;SDS011;14298;50.900;4.648;2023-08-01T04:00:14;26.70;;;25.10;;
26686;SDS011;14298;50.900;4.648;2023-08-01T04:02:44;26.37;;;24.77;;
26686;SDS011;14298;50.900;4.648;2023-08-01T04:05:12;24.20;;;22.90;;
26686;SDS011;14298;50.900;4.648;2023-08-01T04:07:40;25.90;;;24.40;;
26686;SDS011;14298;50.900;4.648;2023-08-01T04:10:08;23.97;;;22.57;;
26686;SDS011;14298;50.900;4.648;2023-08-01T04:12:37;27.27;;;25.67;;
26686;SDS011;14298;50.900;4.648;2023-08-01T04:15:05;26.10;;;24.67;;
26686;SDS011;14298;50.900;4.648;2023-08-01T04:17:33;29.60;;;27.67;;
26686;SDS011;14298;50.900;4.648;2023-08-01T04:20:01;29.67;;;27.77;;
26686;SDS011;14298;50.900;4.648;2023-08-01T04:22:29;28.77;;;27.17;;
26686;SDS011;14298;50.900;4.648;2023-08-01T04:24:57;32.07;;;30.17;;
26686;SDS011;14298;50.900;4.648;2023-08-01T04:27:25;29.13;;;27.20;;
26686;SDS011;14298;50.900;4.648;2023-08-01T04:29:55;32.07;;;30.17;;
26686;SDS011;14298;50.900;4.648;2023-08-01T04:32:23;31.10;;;29.37;;
26686;SDS011;14298;50.900;4.648;2023-08-01T04:34:51;33.37;;;31.37;;
26686;SDS011;14298;50.900;4.648;2023-08-01T04:37:19;35.20;;;33.10;;
26686;SDS011;14298;50.900;4.648;2023-08-01T04:39:50;36.53;;;34.43;;
26686;SDS011;14298;50.900;4.648;2023-08-01T04:42:18;41.07;;;38.37;;
26686;SDS011;14298;50.900;4.648;2023-08-01T04:44:46;42.53;;;39.50;;
26686;SDS011;14298;50.900;4.648;2023-08-01T04:47:14;38.77;;;36.33;;
26686;SDS011;14298;50.900;4.648;2023-08-01T04:49:42;43.13;;;40.43;;
26686;SDS011;14298;50.900;4.648;2023-08-01T04:52:10;40.53;;;38.03;;
26686;SDS011;14298;50.900;4.648;2023-08-01T04:54:38;42.70;;;40.10;;
26686;SDS011;14298;50.900;4.648;2023-08-01T04:57:06;46.93;;;43.63;;
26686;SDS011;14298;50.900;4.648;2023-08-01T04:59:34;48.07;;;44.87;;
26686;SDS011;14298;50.900;4.648;2023-08-01T05:02:02;50.83;;;47.27;;
26686;SDS011;14298;50.900;4.648;2023-08-01T05:04:30;51.30;;;48.00;;
26686;SDS011;14298;50.900;4.648;2023-08-01T05:06:58;48.23;;;45.07;;
26686;SDS011;14298;50.900;4.648;2023-08-01T05:09:26;48.93;;;45.70;;
26686;SDS011;14298;50.900;4.648;2023-08-01T05:11:54;49.70;;;46.57;;
26686;SDS011;14298;50.900;4.648;2023-08-01T05:14:22;50.00;;;47.00;;
26686;SDS011;14298;50.900;4.648;2023-08-01T05:16:50;48.10;;;45.10;;
26686;SDS011;14298;50.900;4.648;2023-08-01T05:19:18;52.77;;;49.67;;
26686;SDS011;14298;50.900;4.648;2023-08-01T05:21:46;56.67;;;52.97;;
26686;SDS011;14298;50.900;4.648;2023-08-01T05:24:14;55.63;;;51.87;;
26686;SDS011;14298;50.900;4.648;2023-08-01T05:26:42;55.73;;;52.43;;
26686;SDS011;14298;50.900;4.648;2023-08-01T05:29:10;57.37;;;53.40;;
26686;SDS011;14298;50.900;4.648;2023-08-01T05:31:38;57.17;;;53.40;;
26686;SDS011;14298;50.900;4.648;2023-08-01T05:34:06;54.77;;;50.93;;
26686;SDS011;14298;50.900;4.648;2023-08-01T05:36:34;54.17;;;51.00;;
26686;SDS011;14298;50.900;4.648;2023-08-01T05:39:02;59.13;;;55.63;;
26686;SDS011;14298;50.900;4.648;2023-08-01T05:41:30;57.10;;;53.67;;
26686;SDS011;14298;50.900;4.648;2023-08-01T05:43:58;59.30;;;55.50;;
26686;SDS011;14298;50.900;4.648;2023-08-01T05:46:26;55.20;;;51.80;;
26686;SDS011;14298;50.900;4.648;2023-08-01T05:48:54;54.60;;;51.47;;
26686;SDS011;14298;50.900;4.648;2023-08-01T05:51:22;55.50;;;52.30;;
26686;SDS011;14298;50.900;4.648;2023-08-01T05:53:50;56.17;;;52.77;;
26686;SDS011;14298;50.900;4.648;2023-08-01T05:56:18;59.17;;;55.57;;
26686;SDS011;14298;50.900;4.648;2023-08-01T05:58:46;58.80;;;55.10;;
26686;SDS011;14298;50.900;4.648;2023-08-01T06:01:14;58.17;;;54.77;;
26686;SDS011;14298;50.900;4.648;2023-08-01T06:03:42;62.70;;;59.00;;
26686;SDS011;14298;50.900;4.648;2023-08-01T06:06:10;63.13;;;59.53;;
26686;SDS011;14298;50.900;4.648;2023-08-01T06:08:38;59.90;;;56.40;;
26686;SDS011;14298;50.900;4.648;2023-08-01T06:11:06;58.77;;;55.27;;
26686;SDS011;14298;50.900;4.648;2023-08-01T06:13:34;55.63;;;52.53;;
26686;SDS011;14298;50.900;4.648;2023-08-01T06:16:02;48.03;;;45.07;;
26686;SDS011;14298;50.900;4.648;2023-08-01T06:18:30;44.77;;;42.37;;
26686;SDS011;14298;50.900;4.648;2023-08-01T06:20:58;49.83;;;47.23;;
26686;SDS011;14298;50.900;4.648;2023-08-01T06:23:26;35.30;;;32.67;;
26686;SDS011;14298;50.900;4.648;2023-08-01T06:25:54;31.23;;;29.33;;
26686;SDS011;14298;50.900;4.648;2023-08-01T06:28:22;32.83;;;30.63;;
26686;SDS011;14298;50.900;4.648;2023-08-01T06:30:50;37.53;;;35.43;;
26686;SDS011;14298;50.900;4.648;2023-08-01T06:33:18;42.50;;;40.30;;
26686;SDS011;14298;50.900;4.648;2023-08-01T06:35:46;44.73;;;42.43;;
26686;SDS011;14298;50.900;4.648;2023-08-01T06:38:14;49.43;;;46.70;;
26686;SDS011;14298;50.900;4.648;2023-08-01T06:40:42;30.50;;;28.90;;
26686;SDS011;14298;50.900;4.648;2023-08-01T06:43:10;36.43;;;34.53;;
26686;SDS011;14298;50.900;4.648;2023-08-01T06:45:38;40.13;;;38.13;;
26686;SDS011;14298;50.900;4.648;2023-08-01T06:48:06;46.77;;;44.23;;
26686;SDS011;14298;50.900;4.648;2023-08-01T06:50:35;37.57;;;35.37;;
26686;SDS011;14298;50.900;4.648;2023-08-01T06:53:03;36.30;;;34.23;;
26686;SDS011;14298;50.900;4.648;2023-08-01T06:55:31;37.73;;;35.73;;
26686;SDS011;14298;50.900;4.648;2023-08-01T06:57:59;36.53;;;34.53;;
26686;SDS011;14298;50.900;4.648;2023-08-01T07:00:27;28.93;;;27.20;;
26686;SDS011;14298;50.900;4.648;2023-08-01T07:02:55;28.53;;;26.93;;
26686;SDS011;14298;50.900;4.648;2023-08-01T07:05:23;21.40;;;20.27;;
26686;SDS011;14298;50.900;4.648;2023-08-01T07:07:51;20.07;;;18.87;;
26686;SDS011;14298;50.900;4.648;2023-08-01T07:10:19;15.37;;;14.13;;
26686;SDS011;14298;50.900;4.648;2023-08-01T07:12:47;11.50;;;10.80;;
26686;SDS011;14298;50.900;4.648;2023-08-01T07:15:15;13.77;;;12.43;;
26686;SDS011;14298;50.900;4.648;2023-08-01T07:17:43;7.70;;;7.00;;
26686;SDS011;14298;50.900;4.648;2023-08-01T07:20:11;3.07;;;2.93;;
26686;SDS011;14298;50.900;4.648;2023-08-01T07:22:40;3.97;;;2.57;;
26686;SDS011;14298;50.900;4.648;2023-08-01T07:25:08;2.20;;;1.70;;
26686;SDS011;14298;50.900;4.648;2023-08-01T07:27:36;2.03;;;1.80;;
26686;SDS011;14298;50.900;4.648;2023-08-01T07:30:05;1.70;;;1.60;;
26686;SDS011;14298;50.900;4.648;2023-08-01T07:32:33;1.47;;;1.33;;
26686;SDS011;14298;50.900;4.648;2023-08-01T07:35:01;1.10;;;1.10;;
26686;SDS011;14298;50.900;4.648;2023-08-01T07:37:29;3.27;;;1.40;;
26686;SDS011;14298;50.900;4.648;2023-08-01T07:39:57;3.30;;;1.57;;
26686;SDS011;14298;50.900;4.648;2023-08-01T07:42:25;5.83;;;1.93;;
26686;SDS011;14298;50.900;4.648;2023-08-01T07:44:53;1.43;;;1.33;;
26686;SDS011;14298;50.900;4.648;2023-08-01T07:47:21;6.13;;;1.30;;
26686;SDS011;14298;50.900;4.648;2023-08-01T07:49:51;2.55;;;1.55;;
26686;SDS011;14298;50.900;4.648;2023-08-01T07:52:19;2.45;;;1.62;;
26686;SDS011;14298;50.900;4.648;2023-08-01T07:54:47;5.63;;;1.30;;
26686;SDS011;14298;50.900;4.648;2023-08-01T07:57:15;1.53;;;1.20;;
26686;SDS011;14298;50.900;4.648;2023-08-01T08:02:30;2.20;;;1.07;;
26686;SDS011;14298;50.900;4.648;2023-08-01T08:04:58;4.00;;;1.70;;
26686;SDS011;14298;50.900;4.648;2023-08-01T08:07:26;5.13;;;1.93;;
26686;SDS011;14298;50.900;4.648;2023-08-01T08:09:54;1.40;;;1.30;;
26686;SDS011;14298;50.900;4.648;2023-08-01T08:12:24;1.50;;;1.37;;
26686;SDS011;14298;50.900;4.648;2023-08-01T08:14:52;1.70;;;1.60;;
26686;SDS011;14298;50.900;4.648;2023-08-01T08:17:20;6.33;;;1.70;;
26686;SDS011;14298;50.900;4.648;2023-08-01T08:19:48;2.60;;;2.13;;
26686;SDS011;14298;50.900;4.648;2023-08-01T08:22:16;2.43;;;1.70;;
26686;SDS011;14298;50.900;4.648;2023-08-01T08:24:44;2.00;;;1.80;;
26686;SDS011;14298;50.900;4.648;2023-08-01T08:27:12;2.23;;;1.63;;
26686;SDS011;14298;50.900;4.648;2023-08-01T08:29:40;1.10;;;1.03;;
26686;SDS011;14298;50.900;4.648;2023-08-01T08:32:08;1.77;;;1.37;;
26686;SDS011;14298;50.900;4.648;2023-08-01T08:34:36;1.00;;;0.90;;
26686;SDS011;14298;50.900;4.648;2023-08-01T08:37:06;1.37;;;1.27;;
26686;SDS011;14298;50.900;4.648;2023-08-01T08:39:34;3.17;;;1.32;;
26686;SDS011;14298;50.900;4.648;2023-08-01T08:42:02;2.53;;;1.33;;
26686;SDS011;14298;50.900;4.648;2023-08-01T08:44:32;2.80;;;1.17;;
26686;SDS011;14298;50.900;4.648;2023-08-01T08:47:03;1.70;;;1.45;;
26686;SDS011;14298;50.900;4.648;2023-08-01T08:49:31;0.90;;;0.75;;
26686;SDS011;14298;50.900;4.648;2023-08-01T08:51:59;2.10;;;1.20;;
26686;SDS011;14298;50.900;4.648;2023-08-01T08:54:30;1.17;;;0.80;;
26686;SDS011;14298;50.900;4.648;2023-08-01T08:56:58;0.85;;;0.70;;
26686;SDS011;14298;50.900;4.648;2023-08-01T08:59:26;1.72;;;1.17;;
26686;SDS011;14298;50.900;4.648;2023-08-01T09:01:56;2.00;;;0.90;;
26686;SDS011;14298;50.900;4.648;2023-08-01T09:04:24;0.70;;;0.70;;
26686;SDS011;14298;50.900;4.648;2023-08-01T09:06:54;2.25;;;1.20;;
26686;SDS011;14298;50.900;4.648;2023-08-01T09:09:22;1.30;;;1.05;;
26686;SDS011;14298;50.900;4.648;2023-08-01T09:11:52;1.42;;;1.00;;
26686;SDS011;14298;50.900;4.648;2023-08-01T09:14:21;1.37;;;0.85;;
26686;SDS011;14298;50.900;4.648;2023-08-01T09:16:49;1.47;;;0.75;;
26686;SDS011;14298;50.900;4.648;2023-08-01T09:19:17;2.08;;;1.05;;
26686;SDS011;14298;50.900;4.648;2023-08-01T09:21:46;1.55;;;1.17;;
26686;SDS011;14298;50.900;4.648;2023-08-01T09:24:15;0.95;;;0.75;;
26686;SDS011;14298;50.900;4.648;2023-08-01T09:26:44;6.47;;;0.90;;
26686;SDS011;14298;50.900;4.648;2023-08-01T09:29:12;0.88;;;0.68;;
26686;SDS011;14298;50.900;4.648;2023-08-01T09:31:42;2.05;;;1.27;;
26686;SDS011;14298;50.900;4.648;2023-08-01T09:34:20;1.75;;;0.93;;
26686;SDS011;14298;50.900;4.648;2023-08-01T09:36:48;1.10;;;0.70;;
26686;SDS011;14298;50.900;4.648;2023-08-01T09:39:17;2.05;;;0.78;;
26686;SDS011;14298;50.900;4.648;2023-08-01T09:41:54;1.42;;;0.80;;
26686;SDS011;14298;50.900;4.648;2023-08-01T09:44:16;4.40;;;1.47;;
26686;SDS011;14298;50.900;4.648;2023-08-01T09:46:44;3.52;;;1.62;;
26686;SDS011;14298;50.900;4.648;2023-08-01T09:49:13;1.37;;;0.70;;
26686;SDS011;14298;50.900;4.648;2023-08-01T09:51:46;1.92;;;0.70;;
26686;SDS011;14298;50.900;4.648;2023-08-01T09:57:08;0.88;;;0.55;;
26686;SDS011;14298;50.900;4.648;2023-08-01T09:59:38;1.22;;;1.10;;
26686;SDS011;14298;50.900;4.648;2023-08-01T10:02:06;2.62;;;0.72;;
26686;SDS011;14298;50.900;4.648;2023-08-01T10:04:36;2.77;;;0.78;;
26686;SDS011;14298;50.900;4.648;2023-08-01T10:07:07;1.55;;;1.07;;
26686;SDS011;14298;50.900;4.648;2023-08-01T10:09:34;0.80;;;0.80;;
26686;SDS011;14298;50.900;4.648;2023-08-01T10:12:03;1.57;;;0.82;;
26686;SDS011;14298;50.900;4.648;2023-08-01T10:14:32;1.35;;;0.98;;
26686;SDS011;14298;50.900;4.648;2023-08-01T10:17:00;0.60;;;0.60;;
26686;SDS011;14298;50.900;4.648;2023-08-01T10:19:30;1.22;;;1.12;;
26686;SDS011;14298;50.900;4.648;2023-08-01T10:22:00;1.70;;;1.00;;
26686;SDS011;14298;50.900;4.648;2023-08-01T10:24:28;0.68;;;0.68;;
26686;SDS011;14298;50.900;4.648;2023-08-01T10:26:57;0.80;;;0.72;;
26686;SDS011;14298;50.900;4.648;2023-08-01T10:29:34;2.70;;;1.00;;
26686;SDS011;14298;50.900;4.648;2023-08-01T10:32:03;1.22;;;0.90;;
26686;SDS011;14298;50.900;4.648;2023-08-01T10:34:31;0.80;;;0.80;;
26686;SDS011;14298;50.900;4.648;2023-08-01T10:36:59;0.80;;;0.80;;
26686;SDS011;14298;50.900;4.648;2023-08-01T10:39:28;4.42;;;1.32;;
26686;SDS011;14298;50.900;4.648;2023-08-01T10:42:02;1.17;;;1.07;;
26686;SDS011;14298;50.900;4.648;2023-08-01T10:44:26;1.32;;;0.93;;
26686;SDS011;14298;50.900;4.648;2023-08-01T10:46:56;0.90;;;0.80;;
26686;SDS011;14298;50.900;4.648;2023-08-01T10:52:03;0.90;;;0.68;;
26686;SDS011;14298;50.900;4.648;2023-08-01T10:54:31;0.93;;;0.93;;
26686;SDS011;14298;50.900;4.648;2023-08-01T10:57:03;3.12;;;0.85;;
26686;SDS011;14298;50.900;4.648;2023-08-01T10:59:32;0.93;;;0.80;;
26686;SDS011;14298;50.900;4.648;2023-08-01T11:02:01;0.67;;;0.63;;
26686;SDS011;14298;50.900;4.648;2023-08-01T11:04:29;0.60;;;0.60;;
26686;SDS011;14298;50.900;4.648;2023-08-01T11:06:57;0.42;;;0.40;;
26686;SDS011;14298;50.900;4.648;2023-08-01T11:09:26;2.62;;;0.82;;
26686;SDS011;14298;50.900;4.648;2023-08-01T11:11:59;0.50;;;0.50;;
26686;SDS011;14298;50.900;4.648;2023-08-01T11:14:29;1.52;;;1.22;;
26686;SDS011;14298;50.900;4.648;2023-08-01T11:16:54;1.98;;;0.75;;
26686;SDS011;14298;50.900;4.648;2023-08-01T11:19:23;1.25;;;1.00;;
26686;SDS011;14298;50.900;4.648;2023-08-01T11:21:52;1.17;;;0.62;;
26686;SDS011;14298;50.900;4.648;2023-08-01T11:24:22;4.37;;;1.57;;
26686;SDS011;14298;50.900;4.648;2023-08-01T11:26:50;1.30;;;0.80;;
26686;SDS011;14298;50.900;4.648;2023-08-01T11:29:18;5.42;;;0.95;;
26686;SDS011;14298;50.900;4.648;2023-08-01T11:31:57;3.25;;;1.15;;
26686;SDS011;14298;50.900;4.648;2023-08-01T11:34:25;0.77;;;0.60;;
26686;SDS011;14298;50.900;4.648;2023-08-01T11:36:54;1.30;;;1.20;;
26686;SDS011;14298;50.900;4.648;2023-08-01T11:39:22;0.85;;;0.72;;
26686;SDS011;14298;50.900;4.648;2023-08-01T11:41:50;2.60;;;0.80;;
26686;SDS011;14298;50.900;4.648;2023-08-01T11:44:23;1.30;;;0.80;;
26686;SDS011;14298;50.900;4.648;2023-08-01T11:46:48;1.47;;;0.87;;
26686;SDS011;14298;50.900;4.648;2023-08-01T11:49:16;0.70;;;0.70;;
26686;SDS011;14298;50.900;4.648;2023-08-01T11:51:44;0.73;;;0.70;;
26686;SDS011;14298;50.900;4.648;2023-08-01T11:54:13;2.23;;;0.80;;
26686;SDS011;14298;50.900;4.648;2023-08-01T11:56:41;0.50;;;0.50;;
26686;SDS011;14298;50.900;4.648;2023-08-01T11:59:17;0.67;;;0.67;;
26686;SDS011;14298;50.900;4.648;2023-08-01T12:01:43;0.78;;;0.75;;
26686;SDS011;14298;50.900;4.648;2023-08-01T12:04:11;0.45;;;0.45;;
26686;SDS011;14298;50.900;4.648;2023-08-01T12:06:39;0.75;;;0.70;;
26686;SDS011;14298;50.900;4.648;2023-08-01T12:09:11;0.82;;;0.75;;
26686;SDS011;14298;50.900;4.648;2023-08-01T12:11:39;1.35;;;1.07;;
26686;SDS011;14298;50.900;4.648;2023-08-01T12:14:12;1.57;;;0.85;;
26686;SDS011;14298;50.900;4.648;2023-08-01T12:16:46;1.07;;;0.80;;
26686;SDS011;14298;50.900;4.648;2023-08-01T12:19:18;1.57;;;1.37;;
26686;SDS011;14298;50.900;4.648;2023-08-01T12:21:46;8.80;;;0.90;;
26686;SDS011;14298;50.900;4.648;2023-08-01T12:24:15;0.53;;;0.53;;
26686;SDS011;14298;50.900;4.648;2023-08-01T12:26:43;1.42;;;0.82;;
26686;SDS011;14298;50.900;4.648;2023-08-01T12:29:11;1.32;;;0.78;;
26686;SDS011;14298;50.900;4.648;2023-08-01T12:31:39;2.17;;;0.72;;
26686;SDS011;14298;50.900;4.648;2023-08-01T12:34:07;0.47;;;0.47;;
26686;SDS011;14298;50.900;4.648;2023-08-01T12:36:35;0.40;;;0.30;;
26686;SDS011;14298;50.900;4.648;2023-08-01T12:39:03;2.33;;;0.90;;
26686;SDS011;14298;50.900;4.648;2023-08-01T12:41:33;0.77;;;0.53;;
26686;SDS011;14298;50.900;4.648;2023-08-01T12:44:01;2.33;;;0.60;;
26686;SDS011;14298;50.900;4.648;2023-08-01T12:46:30;4.43;;;0.57;;
26686;SDS011;14298;50.900;4.648;2023-08-01T12:48:58;0.53;;;0.40;;
26686;SDS011;14298;50.900;4.648;2023-08-01T12:51:26;0.50;;;0.13;;
26686;SDS011;14298;50.900;4.648;2023-08-01T12:53:54;0.33;;;0.33;;
26686;SDS011;14298;50.900;4.648;2023-08-01T12:56:22;4.47;;;0.40;;
26686;SDS011;14298;50.900;4.648;2023-08-01T12:58:49;0.67;;;0.43;;
26686;SDS011;14298;50.900;4.648;2023-08-01T13:01:17;0.50;;;0.50;;
26686;SDS011;14298;50.900;4.648;2023-08-01T13:03:45;0.70;;;0.60;;
26686;SDS011;14298;50.900;4.648;2023-08-01T13:06:13;0.63;;;0.43;;
26686;SDS011;14298;50.900;4.648;2023-08-01T13:08:41;0.60;;;0.60;;
26686;SDS011;14298;50.900;4.648;2023-08-01T13:11:15;0.20;;;0.20;;
26686;SDS011;14298;50.900;4.648;2023-08-01T13:13:42;0.30;;;0.30;;
26686;SDS011;14298;50.900;4.648;2023-08-01T13:16:10;0.93;;;0.60;;
26686;SDS011;14298;50.900;4.648;2023-08-01T13:18:39;0.20;;;0.20;;
26686;SDS011;14298;50.900;4.648;2023-08-01T13:21:09;0.33;;;0.27;;
26686;SDS011;14298;50.900;4.648;2023-08-01T13:23:38;0.40;;;0.20;;
26686;SDS011;14298;50.900;4.648;2023-08-01T13:26:06;0.13;;;0.10;;
26686;SDS011;14298;50.900;4.648;2023-08-01T13:28:34;0.67;;;0.30;;
26686;SDS011;14298;50.900;4.648;2023-08-01T13:31:02;0.27;;;0.27;;
26686;SDS011;14298;50.900;4.648;2023-08-01T13:33:30;2.37;;;0.60;;
26686;SDS011;14298;50.900;4.648;2023-08-01T13:35:58;1.93;;;0.50;;
26686;SDS011;14298;50.900;4.648;2023-08-01T13:38:26;0.85;;;0.80;;
26686;SDS011;14298;50.900;4.648;2023-08-01T13:40:54;7.07;;;1.40;;
26686;SDS011;14298;50.900;4.648;2023-08-01T13:43:22;4.63;;;0.70;;
26686;SDS011;14298;50.900;4.648;2023-08-01T13:45:50;0.20;;;0.20;;
26686;SDS011;14298;50.900;4.648;2023-08-01T13:48:19;1.42;;;0.40;;
26686;SDS011;14298;50.900;4.648;2023-08-01T13:50:47;0.50;;;0.50;;
26686;SDS011;14298;50.900;4.648;2023-08-01T13:53:15;1.92;;;1.02;;
26686;SDS011;14298;50.900;4.648;2023-08-01T13:55:44;0.33;;;0.33;;
26686;SDS011;14298;50.900;4.648;2023-08-01T13:58:13;0.37;;;0.37;;
26686;SDS011;14298;50.900;4.648;2023-08-01T14:00:41;0.20;;;0.20;;
26686;SDS011;14298;50.900;4.648;2023-08-01T14:03:09;2.90;;;0.60;;
26686;SDS011;14298;50.900;4.648;2023-08-01T14:05:37;0.90;;;0.60;;
26686;SDS011;14298;50.900;4.648;2023-08-01T14:08:05;2.60;;;0.73;;
26686;SDS011;14298;50.900;4.648;2023-08-01T14:10:33;0.30;;;0.30;;
26686;SDS011;14298;50.900;4.648;2023-08-01T14:13:01;0.57;;;0.30;;
26686;SDS011;14298;50.900;4.648;2023-08-01T14:15:29;5.43;;;1.23;;
26686;SDS011;14298;50.900;4.648;2023-08-01T14:17:57;1.03;;;0.40;;
26686;SDS011;14298;50.900;4.648;2023-08-01T14:20:24;2.43;;;0.67;;
26686;SDS011;14298;50.900;4.648;2023-08-01T14:22:52;1.43;;;0.90;;
26686;SDS011;14298;50.900;4.648;2023-08-01T14:25:20;0.57;;;0.57;;
26686;SDS011;14298;50.900;4.648;2023-08-01T14:27:48;0.30;;;0.30;;
26686;SDS011;14298;50.900;4.648;2023-08-01T14:30:16;1.60;;;0.77;;
26686;SDS011;14298;50.900;4.648;2023-08-01T14:32:44;1.53;;;0.90;;
26686;SDS011;14298;50.900;4.648;2023-08-01T14:35:12;0.80;;;0.73;;
26686;SDS011;14298;50.900;4.648;2023-08-01T14:37:40;0.53;;;0.53;;
26686;SDS011;14298;50.900;4.648;2023-08-01T14:40:10;1.60;;;0.90;;
26686;SDS011;14298;50.900;4.648;2023-08-01T14:42:38;0.87;;;0.60;;
26686;SDS011;14298;50.900;4.648;2023-08-01T14:45:06;0.83;;;0.50;;
26686;SDS011;14298;50.900;4.648;2023-08-01T14:47:35;0.47;;;0.40;;
26686;SDS011;14298;50.900;4.648;2023-08-01T14:50:04;3.30;;;0.70;;